CES5380 ZJSY-ZSPD
Flight info
| Callsign | CES5380 |
|---|---|
| Flight time | N/A |
| Altitude | 35100 |
| Route | ZJSY DCT PORAP W222 SAMAS G221 BIGRO R200 ZUH R473 POU A599 ELNEX G204 MULOV V73 SUPAR B221 AND DCT ZSPD |
| Aircraft | B77W/H-SDE1E2E3FGHIJ2J3J4J5M1RWXYZ/LB1D1 |
Departure
| Time | 2026-05-04 08:37 |
|---|---|
| Airport | Sanya Phoenix International Airport (ZJSY) |
Arrival
| Time | N/A |
|---|---|
| Airport | Shanghai Pudong International Airport (ZSPD) |
| Time | Latitude | Longitude | Altitude | Speed | Heading |
|---|---|---|---|---|---|
| 2026-05-04 08:16 | 18.30548 | 109.40145 | 110 ft | 0 kts | 262° |
| 2026-05-04 08:20 | 18.30549 | 109.40156 | 111 ft | 2 kts | 262° |
| 2026-05-04 08:21 | 18.30551 | 109.40172 | 110 ft | 2 kts | 262° |
| 2026-05-04 08:21 | 18.30554 | 109.40187 | 110 ft | 2 kts | 262° |
| 2026-05-04 08:21 | 18.30557 | 109.40202 | 110 ft | 2 kts | 244° |
| 2026-05-04 08:21 | 18.30565 | 109.40215 | 110 ft | 2 kts | 224° |
| 2026-05-04 08:22 | 18.30577 | 109.40224 | 110 ft | 2 kts | 206° |
| 2026-05-04 08:22 | 18.30591 | 109.40230 | 110 ft | 2 kts | 188° |
| 2026-05-04 08:24 | 18.30622 | 109.40227 | 110 ft | 0 kts | 171° |
| 2026-05-04 08:25 | 18.30621 | 109.40227 | 110 ft | 1 kts | 171° |
| 2026-05-04 08:25 | 18.30597 | 109.40231 | 110 ft | 6 kts | 173° |
| 2026-05-04 08:25 | 18.30519 | 109.40241 | 110 ft | 14 kts | 172° |
| 2026-05-04 08:26 | 18.30430 | 109.40274 | 110 ft | 13 kts | 117° |
| 2026-05-04 08:27 | 18.30422 | 109.40884 | 110 ft | 16 kts | 83° |
| 2026-05-04 08:28 | 18.30440 | 109.41019 | 110 ft | 20 kts | 82° |
| 2026-05-04 08:28 | 18.30460 | 109.41170 | 110 ft | 19 kts | 82° |
| 2026-05-04 08:28 | 18.30478 | 109.41306 | 110 ft | 17 kts | 82° |
| 2026-05-04 08:28 | 18.30488 | 109.41384 | 110 ft | 0 kts | 82° |
| 2026-05-04 08:29 | 18.30488 | 109.41388 | 110 ft | 3 kts | 82° |
| 2026-05-04 08:29 | 18.30494 | 109.41431 | 110 ft | 5 kts | 82° |
| 2026-05-04 08:29 | 18.30497 | 109.41458 | 110 ft | 4 kts | 82° |
| 2026-05-04 08:31 | 18.30542 | 109.41794 | 110 ft | 4 kts | 82° |
| 2026-05-04 08:33 | 18.30650 | 109.42621 | 111 ft | 16 kts | 82° |
| 2026-05-04 08:33 | 18.30651 | 109.42738 | 111 ft | 15 kts | 105° |
| 2026-05-04 08:35 | 18.30497 | 109.42775 | 110 ft | 5 kts | 258° |
| 2026-05-04 08:35 | 18.30497 | 109.42773 | 110 ft | 0 kts | 259° |
| 2026-05-04 08:35 | 18.30484 | 109.42694 | 110 ft | 31 kts | 261° |
| 2026-05-04 08:35 | 18.30422 | 109.42220 | 110 ft | 96 kts | 263° |
| 2026-05-04 08:37 | 18.28211 | 109.34967 | 2172 ft | 226 kts | 247° |
| 2026-05-04 08:37 | 18.27577 | 109.33383 | 2660 ft | 244 kts | 247° |
| 2026-05-04 08:37 | 18.26909 | 109.31718 | 3366 ft | 251 kts | 247° |
| 2026-05-04 08:38 | 18.26234 | 109.30033 | 4186 ft | 253 kts | 247° |
| 2026-05-04 08:38 | 18.25552 | 109.28336 | 4984 ft | 256 kts | 246° |
| 2026-05-04 08:38 | 18.24866 | 109.26627 | 5780 ft | 258 kts | 246° |
| 2026-05-04 08:40 | 18.16348 | 109.21725 | 10716 ft | 281 kts | 117° |
| 2026-05-04 08:40 | 18.15856 | 109.23691 | 11347 ft | 285 kts | 87° |
| 2026-05-04 08:40 | 18.16199 | 109.25717 | 12009 ft | 287 kts | 75° |
| 2026-05-04 08:41 | 18.16734 | 109.27768 | 12713 ft | 290 kts | 73° |
| 2026-05-04 08:41 | 18.17277 | 109.29810 | 13356 ft | 296 kts | 73° |
| 2026-05-04 08:41 | 18.17836 | 109.31905 | 14067 ft | 299 kts | 73° |
| 2026-05-04 08:41 | 18.18399 | 109.34020 | 14780 ft | 303 kts | 73° |
| 2026-05-04 08:42 | 18.18964 | 109.36144 | 15433 ft | 309 kts | 73° |
| 2026-05-04 08:42 | 18.19551 | 109.38349 | 16107 ft | 314 kts | 74° |
| 2026-05-04 08:42 | 18.20144 | 109.40580 | 16782 ft | 318 kts | 74° |
| 2026-05-04 08:42 | 18.20735 | 109.42808 | 17455 ft | 321 kts | 73° |
| 2026-05-04 08:43 | 18.21345 | 109.45065 | 18054 ft | 326 kts | 70° |
| 2026-05-04 08:43 | 18.22422 | 109.47162 | 18558 ft | 330 kts | 46° |
| 2026-05-04 08:43 | 18.24196 | 109.48715 | 18948 ft | 337 kts | 26° |
| 2026-05-04 08:43 | 18.26348 | 109.49874 | 19226 ft | 353 kts | 22° |
| 2026-05-04 08:44 | 18.28602 | 109.50995 | 19534 ft | 369 kts | 22° |
| 2026-05-04 08:44 | 18.30992 | 109.52196 | 19858 ft | 385 kts | 23° |
| 2026-05-04 08:46 | 18.50060 | 109.61923 | 22316 ft | 469 kts | 22° |
| 2026-05-04 08:46 | 18.53045 | 109.63361 | 22902 ft | 472 kts | 21° |
| 2026-05-04 08:46 | 18.56011 | 109.64771 | 23493 ft | 474 kts | 21° |
| 2026-05-04 08:46 | 18.59028 | 109.66208 | 24013 ft | 478 kts | 21° |
| 2026-05-04 08:47 | 18.62048 | 109.67648 | 24493 ft | 482 kts | 22° |
| 2026-05-04 08:47 | 18.65156 | 109.69134 | 25017 ft | 486 kts | 22° |
| 2026-05-04 08:47 | 18.68244 | 109.70612 | 25556 ft | 489 kts | 22° |
| 2026-05-04 08:47 | 18.71350 | 109.72099 | 26072 ft | 492 kts | 22° |
| 2026-05-04 08:48 | 18.74476 | 109.73598 | 26578 ft | 496 kts | 22° |
| 2026-05-04 08:48 | 18.77658 | 109.75124 | 27097 ft | 500 kts | 22° |
| 2026-05-04 08:48 | 18.80854 | 109.76657 | 27596 ft | 504 kts | 22° |
| 2026-05-04 08:48 | 18.84042 | 109.78188 | 28114 ft | 507 kts | 22° |
| 2026-05-04 08:49 | 18.87276 | 109.79741 | 28618 ft | 510 kts | 22° |
| 2026-05-04 08:50 | 19.06673 | 109.89077 | 32784 ft | 502 kts | 22° |
| 2026-05-04 08:50 | 19.09850 | 109.90608 | 33461 ft | 501 kts | 22° |
| 2026-05-04 08:51 | 19.13007 | 109.92130 | 34128 ft | 499 kts | 22° |
| 2026-05-04 08:51 | 19.16173 | 109.93657 | 34838 ft | 496 kts | 22° |
| 2026-05-04 08:51 | 19.19320 | 109.95175 | 35075 ft | 499 kts | 21° |
| 2026-05-04 08:51 | 19.22475 | 109.96698 | 35075 ft | 496 kts | 21° |
| 2026-05-04 08:52 | 19.28780 | 109.99689 | 35065 ft | 494 kts | 20° |
| 2026-05-04 08:52 | 19.35103 | 110.02644 | 35061 ft | 496 kts | 21° |
| 2026-05-04 08:54 | 19.60069 | 110.15347 | 35042 ft | 502 kts | 39° |
| 2026-05-04 08:55 | 19.62450 | 110.18112 | 35046 ft | 508 kts | 54° |
| 2026-05-04 08:55 | 19.64124 | 110.21450 | 35045 ft | 515 kts | 69° |
| 2026-05-04 08:55 | 19.64955 | 110.25117 | 35038 ft | 515 kts | 84° |
| 2026-05-04 08:55 | 19.64896 | 110.28868 | 35044 ft | 513 kts | 100° |
| 2026-05-04 08:57 | 19.46980 | 110.41033 | 35052 ft | 470 kts | 200° |
| 2026-05-04 09:01 | 19.29222 | 110.09342 | 35053 ft | 466 kts | 323° |
| 2026-05-04 09:01 | 19.32112 | 110.07732 | 35076 ft | 472 kts | 334° |
| 2026-05-04 09:01 | 19.35290 | 110.06705 | 35049 ft | 474 kts | 347° |
| 2026-05-04 09:01 | 19.38595 | 110.06541 | 35054 ft | 483 kts | 1° |
| 2026-05-04 09:02 | 19.41965 | 110.07094 | 35056 ft | 492 kts | 10° |
| 2026-05-04 09:02 | 19.48457 | 110.09351 | 35057 ft | 495 kts | 19° |
| 2026-05-04 09:03 | 19.54847 | 110.12231 | 35061 ft | 500 kts | 21° |
| 2026-05-04 09:03 | 19.61348 | 110.15341 | 35216 ft | 517 kts | 21° |
| 2026-05-04 09:03 | 19.64588 | 110.16906 | 35713 ft | 517 kts | 21° |
| 2026-05-04 09:04 | 19.67866 | 110.18491 | 36414 ft | 513 kts | 21° |
| 2026-05-04 09:04 | 19.71111 | 110.20062 | 37007 ft | 511 kts | 21° |
| 2026-05-04 09:04 | 19.74370 | 110.21640 | 37059 ft | 512 kts | 21° |
| 2026-05-04 09:05 | 19.80816 | 110.24764 | 37068 ft | 511 kts | 21° |
| 2026-05-04 09:05 | 19.87366 | 110.27943 | 37070 ft | 512 kts | 21° |
| 2026-05-04 09:06 | 19.93876 | 110.31104 | 37067 ft | 512 kts | 21° |
| 2026-05-04 09:07 | 20.17110 | 110.40509 | 37071 ft | 508 kts | 10° |
| 2026-05-04 09:08 | 20.20542 | 110.41430 | 37069 ft | 507 kts | 10° |
| 2026-05-04 09:08 | 20.27400 | 110.43272 | 37066 ft | 507 kts | 10° |
| 2026-05-04 09:09 | 20.34238 | 110.45113 | 37069 ft | 506 kts | 10° |
| 2026-05-04 09:09 | 20.41066 | 110.46954 | 37070 ft | 507 kts | 10° |
| 2026-05-04 09:10 | 20.47777 | 110.49330 | 37072 ft | 513 kts | 22° |
| 2026-05-04 09:10 | 20.53683 | 110.53657 | 37072 ft | 523 kts | 40° |
| 2026-05-04 09:11 | 20.58577 | 110.59447 | 37073 ft | 526 kts | 47° |
| 2026-05-04 09:11 | 20.63318 | 110.65388 | 37073 ft | 527 kts | 47° |
| 2026-05-04 09:12 | 20.68075 | 110.71339 | 37063 ft | 527 kts | 47° |
| 2026-05-04 09:14 | 20.87117 | 110.95158 | 37072 ft | 527 kts | 46° |
| 2026-05-04 09:14 | 20.91856 | 111.01096 | 37070 ft | 526 kts | 46° |
| 2026-05-04 09:15 | 20.96628 | 111.07076 | 37074 ft | 527 kts | 46° |
| 2026-05-04 09:15 | 21.01383 | 111.12991 | 37074 ft | 527 kts | 46° |
| 2026-05-04 09:17 | 21.22842 | 111.39767 | 37083 ft | 526 kts | 46° |
| 2026-05-04 09:18 | 21.27583 | 111.45700 | 37082 ft | 528 kts | 46° |
| 2026-05-04 09:18 | 21.32376 | 111.51706 | 37087 ft | 529 kts | 46° |
| 2026-05-04 09:19 | 21.37122 | 111.57661 | 37094 ft | 528 kts | 46° |
| 2026-05-04 09:19 | 21.41902 | 111.63662 | 37094 ft | 528 kts | 46° |
| 2026-05-04 09:20 | 21.46680 | 111.69669 | 37082 ft | 529 kts | 46° |
| 2026-05-04 09:20 | 21.51452 | 111.75676 | 37084 ft | 530 kts | 46° |
| 2026-05-04 09:21 | 21.56120 | 111.81820 | 37084 ft | 534 kts | 53° |
| 2026-05-04 09:21 | 21.59489 | 111.88873 | 37091 ft | 538 kts | 64° |
| 2026-05-04 09:22 | 21.62453 | 111.96247 | 37088 ft | 537 kts | 65° |
| 2026-05-04 09:22 | 21.65412 | 112.03636 | 37091 ft | 538 kts | 65° |
| 2026-05-04 09:23 | 21.68357 | 112.11001 | 37093 ft | 539 kts | 65° |
| 2026-05-04 09:23 | 21.71305 | 112.18383 | 37094 ft | 539 kts | 65° |
| 2026-05-04 09:25 | 21.83036 | 112.47874 | 37098 ft | 541 kts | 65° |
| 2026-05-04 09:26 | 21.85975 | 112.55289 | 37101 ft | 543 kts | 64° |
| 2026-05-04 09:26 | 21.88993 | 112.62766 | 37102 ft | 541 kts | 64° |
| 2026-05-04 09:27 | 21.91968 | 112.70122 | 37094 ft | 543 kts | 65° |
| 2026-05-04 09:27 | 21.94982 | 112.77591 | 37102 ft | 543 kts | 64° |
| 2026-05-04 09:28 | 21.98794 | 112.84499 | 37110 ft | 539 kts | 47° |
| 2026-05-04 09:28 | 22.04168 | 112.89963 | 37110 ft | 526 kts | 30° |
| 2026-05-04 09:29 | 22.10617 | 112.93591 | 37111 ft | 515 kts | 13° |
| 2026-05-04 09:29 | 22.17465 | 112.95634 | 37112 ft | 508 kts | 8° |
| 2026-05-04 09:30 | 22.24326 | 112.97517 | 37115 ft | 506 kts | 8° |
| 2026-05-04 09:30 | 22.31180 | 112.99398 | 37115 ft | 508 kts | 8° |
| 2026-05-04 09:31 | 22.38055 | 113.01288 | 37115 ft | 508 kts | 8° |
| 2026-05-04 09:31 | 22.44946 | 113.03182 | 37115 ft | 509 kts | 8° |
| 2026-05-04 09:32 | 22.51800 | 113.05070 | 37112 ft | 509 kts | 8° |
| 2026-05-04 09:34 | 22.79338 | 113.12672 | 37114 ft | 510 kts | 8° |
| 2026-05-04 09:34 | 22.86234 | 113.14580 | 37115 ft | 512 kts | 8° |
| 2026-05-04 09:35 | 22.93158 | 113.16500 | 37116 ft | 511 kts | 8° |
| 2026-05-04 09:35 | 23.00059 | 113.18491 | 37111 ft | 516 kts | 13° |
| 2026-05-04 09:37 | 23.22115 | 113.32903 | 37126 ft | 528 kts | 27° |
| 2026-05-04 09:37 | 23.25207 | 113.35068 | 37123 ft | 529 kts | 27° |
| 2026-05-04 09:38 | 23.31294 | 113.39332 | 37128 ft | 529 kts | 27° |
| 2026-05-04 09:38 | 23.37526 | 113.43700 | 37129 ft | 531 kts | 27° |
| 2026-05-04 09:39 | 23.43725 | 113.48049 | 37132 ft | 530 kts | 27° |
| 2026-05-04 09:39 | 23.49934 | 113.52408 | 37129 ft | 531 kts | 27° |
| 2026-05-04 09:40 | 23.56141 | 113.56772 | 37133 ft | 530 kts | 26° |
| 2026-05-04 09:40 | 23.62341 | 113.61101 | 37136 ft | 531 kts | 26° |
| 2026-05-04 09:42 | 23.87357 | 113.78357 | 37143 ft | 531 kts | 26° |
| 2026-05-04 09:43 | 23.93607 | 113.82685 | 37152 ft | 531 kts | 26° |
| 2026-05-04 09:43 | 23.99839 | 113.87005 | 37169 ft | 529 kts | 26° |
| 2026-05-04 09:44 | 24.06082 | 113.91338 | 37175 ft | 532 kts | 26° |